createdAt,value
2023-05-15T00:00:33.529Z,14.49
2023-05-15T00:01:35.463Z,14.53
2023-05-15T00:02:38.764Z,14.53
2023-05-15T00:03:40.974Z,14.55
2023-05-15T00:04:42.576Z,14.58
2023-05-15T00:05:44.174Z,14.48
2023-05-15T00:06:45.719Z,14.47
2023-05-15T00:07:47.276Z,14.39
2023-05-15T00:08:48.848Z,14.34
2023-05-15T00:09:50.382Z,14.38
2023-05-15T00:11:00.717Z,14.39
2023-05-15T00:12:03.679Z,14.31
2023-05-15T00:13:05.271Z,14.25
2023-05-15T00:14:06.834Z,14.15
2023-05-15T00:15:08.878Z,14.15
2023-05-15T00:16:10.519Z,14.19
2023-05-15T00:17:12.617Z,14.17
2023-05-15T00:18:14.274Z,14.16
2023-05-15T00:19:16.690Z,14.18
2023-05-15T00:20:18.327Z,14.20
2023-05-15T00:21:19.935Z,14.21
2023-05-15T00:22:21.447Z,14.15
2023-05-15T00:23:23.092Z,14.12
2023-05-15T00:24:24.656Z,14.13
2023-05-15T00:25:26.390Z,14.16
2023-05-15T00:26:28.024Z,14.08
2023-05-15T00:27:29.582Z,14.11
2023-05-15T00:28:31.096Z,14.05
2023-05-15T00:29:32.625Z,13.99
2023-05-15T00:30:34.164Z,14.02
2023-05-15T00:31:35.742Z,14.02
2023-05-15T00:32:37.393Z,13.95
2023-05-15T00:33:38.975Z,13.88
2023-05-15T00:34:40.517Z,13.77
2023-05-15T00:35:42.065Z,13.60
2023-05-15T00:36:44.112Z,13.61
2023-05-15T00:37:45.702Z,13.62
2023-05-15T00:38:47.505Z,13.66
2023-05-15T00:39:49.105Z,13.71
2023-05-15T00:40:52.166Z,13.76
2023-05-15T00:41:55.064Z,13.81
2023-05-15T00:42:57.538Z,13.80
2023-05-15T00:44:00.742Z,13.81
2023-05-15T00:45:03.255Z,13.84
2023-05-15T00:46:06.591Z,13.84
2023-05-15T00:47:11.798Z,13.92
2023-05-15T00:48:14.093Z,13.82
2023-05-15T00:49:18.526Z,13.84
2023-05-15T00:50:20.253Z,13.88
2023-05-15T00:51:21.906Z,13.83
2023-05-15T00:52:24.174Z,13.84
2023-05-15T00:53:27.668Z,13.88
2023-05-15T00:54:29.478Z,13.89
2023-05-15T00:55:32.175Z,13.93
2023-05-15T00:56:34.676Z,13.98
2023-05-15T00:57:37.570Z,13.98
2023-05-15T00:58:39.237Z,13.93
2023-05-15T00:59:42.314Z,13.77
2023-05-15T01:00:46.532Z,13.71
2023-05-15T01:01:48.281Z,13.65
2023-05-15T01:02:49.890Z,13.66
2023-05-15T01:03:51.606Z,13.64
2023-05-15T01:04:53.528Z,13.73
2023-05-15T01:05:55.312Z,13.75
2023-05-15T01:06:57.122Z,13.81
2023-05-15T01:08:24.676Z,13.85
2023-05-15T01:09:29.637Z,13.93
2023-05-15T01:10:33.155Z,13.97
2023-05-15T01:11:37.918Z,14.00
2023-05-15T01:12:41.443Z,14.04
2023-05-15T01:13:43.946Z,14.04
2023-05-15T01:14:45.661Z,14.00
2023-05-15T01:15:47.669Z,13.94
2023-05-15T01:16:49.184Z,13.88
2023-05-15T01:17:51.365Z,13.84
2023-05-15T01:18:53.034Z,13.88
2023-05-15T01:19:57.764Z,13.88
2023-05-15T01:21:05.222Z,13.89
2023-05-15T01:22:39.046Z,13.88
2023-05-15T01:24:17.630Z,13.90
2023-05-15T01:25:31.349Z,13.88
2023-05-15T01:26:51.594Z,13.89
2023-05-15T01:27:56.917Z,13.94
2023-05-15T01:29:04.695Z,13.95
2023-05-15T01:30:13.456Z,13.96
2023-05-15T01:31:19.302Z,14.00
2023-05-15T01:32:28.732Z,13.98
2023-05-15T01:33:37.647Z,13.92
2023-05-15T01:34:48.736Z,13.97
2023-05-15T01:36:08.325Z,13.94
2023-05-15T01:37:11.651Z,13.90
2023-05-15T01:38:30.654Z,13.83
2023-05-15T01:39:34.947Z,13.87
2023-05-15T01:40:36.606Z,13.94
2023-05-15T01:41:50.320Z,13.96
2023-05-15T01:42:56.164Z,14.01
2023-05-15T01:44:43.977Z,14.03
2023-05-15T01:45:46.062Z,14.05
2023-05-15T01:46:51.477Z,13.98
2023-05-15T01:47:54.589Z,13.93
2023-05-15T01:48:58.501Z,13.95
2023-05-15T01:50:02.852Z,13.98
2023-05-15T01:51:07.838Z,13.98
2023-05-15T01:52:14.653Z,13.98
2023-05-15T01:53:18.864Z,13.97
2023-05-15T01:54:22.391Z,13.97
2023-05-15T01:55:25.743Z,13.96
2023-05-15T01:56:27.604Z,13.86
2023-05-15T01:57:31.227Z,13.81
2023-05-15T01:58:33.961Z,13.75
2023-05-15T01:59:37.220Z,13.73
2023-05-15T02:00:40.648Z,13.78
2023-05-15T02:01:43.064Z,13.84
2023-05-15T02:02:46.753Z,13.87
2023-05-15T02:03:49.260Z,13.83
2023-05-15T02:04:52.517Z,13.90
2023-05-15T02:05:56.672Z,14.03
2023-05-15T02:06:59.691Z,14.09
2023-05-15T02:08:04.422Z,14.14
2023-05-15T02:09:06.811Z,14.20
2023-05-15T02:10:09.625Z,14.19
2023-05-15T02:11:12.226Z,14.12
2023-05-15T02:12:15.173Z,14.07
2023-05-15T02:13:17.077Z,14.07
2023-05-15T02:14:19.237Z,14.08
2023-05-15T02:15:22.127Z,14.12
2023-05-15T02:16:23.965Z,14.15
2023-05-15T02:17:25.703Z,14.15
2023-05-15T02:18:28.997Z,14.15
2023-05-15T02:19:30.701Z,14.13
2023-05-15T02:20:32.244Z,14.18
2023-05-15T02:21:35.198Z,14.21
2023-05-15T02:22:36.742Z,14.17
2023-05-15T02:23:39.246Z,14.21
2023-05-15T02:24:40.868Z,14.22
2023-05-15T02:25:56.455Z,14.23
2023-05-15T02:27:06.873Z,14.18
2023-05-15T02:28:17.142Z,14.20
2023-05-15T02:29:21.901Z,14.25
2023-05-15T02:30:32.335Z,14.30
2023-05-15T02:31:39.621Z,14.35
2023-05-15T02:33:02.939Z,14.28
2023-05-15T02:34:23.302Z,13.93
2023-05-15T02:35:58.768Z,13.83
2023-05-15T02:37:03.238Z,13.92
2023-05-15T02:38:09.158Z,13.97
2023-05-15T02:39:13.863Z,13.98
2023-05-15T02:40:16.644Z,13.93
2023-05-15T02:41:19.033Z,13.88
2023-05-15T02:42:21.963Z,13.85
2023-05-15T02:43:24.079Z,13.84
2023-05-15T02:44:27.104Z,13.78
2023-05-15T02:45:29.737Z,13.80
2023-05-15T02:46:32.300Z,13.84
2023-05-15T02:47:35.051Z,13.79
2023-05-15T02:48:41.169Z,13.76
2023-05-15T02:49:43.047Z,13.74
2023-05-15T02:50:44.671Z,13.82
2023-05-15T02:51:46.224Z,13.94
2023-05-15T02:52:47.739Z,13.94
2023-05-15T02:53:49.295Z,13.96
2023-05-15T02:54:51.149Z,13.88
2023-05-15T02:55:52.718Z,13.85
2023-05-15T02:56:54.267Z,13.86
2023-05-15T02:57:56.220Z,13.88
2023-05-15T02:58:58.020Z,13.82
2023-05-15T03:00:00.699Z,13.81
2023-05-15T03:01:02.308Z,13.81
2023-05-15T03:02:03.884Z,13.83
2023-05-15T03:03:05.429Z,13.80
2023-05-15T03:04:06.982Z,13.77
2023-05-15T03:05:09.015Z,13.69
2023-05-15T03:06:10.826Z,13.64
2023-05-15T03:07:14.443Z,13.63
2023-05-15T03:08:16.117Z,13.62
2023-05-15T03:09:18.019Z,13.64
2023-05-15T03:10:21.265Z,13.65
2023-05-15T03:11:22.783Z,13.67
2023-05-15T03:12:24.340Z,13.70
2023-05-15T03:13:25.888Z,13.69
2023-05-15T03:14:27.405Z,13.74
2023-05-15T03:15:28.985Z,13.73
2023-05-15T03:16:30.639Z,13.71
2023-05-15T03:17:32.378Z,13.69
2023-05-15T03:18:34.032Z,13.63
2023-05-15T03:19:35.593Z,13.71
2023-05-15T03:20:37.102Z,13.75
2023-05-15T03:21:38.678Z,13.76
2023-05-15T03:22:40.923Z,13.82
2023-05-15T03:23:42.475Z,13.90
2023-05-15T03:24:44.137Z,14.00
2023-05-15T03:25:45.664Z,14.13
2023-05-15T03:26:47.408Z,14.16
2023-05-15T03:27:48.964Z,14.30
2023-05-15T03:28:51.058Z,14.32
2023-05-15T03:29:52.552Z,14.35
2023-05-15T03:30:54.263Z,14.37
2023-05-15T03:31:56.015Z,14.36
2023-05-15T03:32:57.989Z,14.37
2023-05-15T03:33:59.641Z,14.40
2023-05-15T03:35:01.383Z,14.37
2023-05-15T03:36:03.009Z,14.37
2023-05-15T03:37:04.640Z,14.40
2023-05-15T03:38:06.216Z,14.45
2023-05-15T03:39:07.742Z,14.49
2023-05-15T03:40:09.728Z,14.50
2023-05-15T03:41:11.327Z,14.53
2023-05-15T03:42:13.463Z,14.58
2023-05-15T03:43:15.017Z,14.63
2023-05-15T03:44:17.186Z,14.67
2023-05-15T03:45:19.520Z,14.64
2023-05-15T03:46:21.125Z,14.48
2023-05-15T03:47:22.755Z,14.36
2023-05-15T03:48:24.427Z,14.40
2023-05-15T03:49:25.953Z,14.41
2023-05-15T03:50:27.752Z,14.40
2023-05-15T03:51:29.316Z,14.39
2023-05-15T03:52:30.945Z,14.39
2023-05-15T03:53:32.537Z,14.41
2023-05-15T03:54:34.692Z,14.47
2023-05-15T03:55:36.324Z,14.46
2023-05-15T03:56:37.934Z,14.44
2023-05-15T03:57:41.550Z,14.48
2023-05-15T03:58:43.448Z,14.48
2023-05-15T03:59:45.079Z,14.53
2023-05-15T04:00:46.769Z,14.59
2023-05-15T04:02:03.474Z,14.62
2023-05-15T04:03:06.354Z,14.59
2023-05-15T04:04:07.996Z,14.44
2023-05-15T04:05:09.945Z,14.37
2023-05-15T04:06:11.559Z,14.45
2023-05-15T04:07:13.084Z,14.53
2023-05-15T04:08:14.661Z,14.62
2023-05-15T04:09:16.234Z,14.68
2023-05-15T04:10:17.840Z,14.75
2023-05-15T04:11:19.509Z,14.80
2023-05-15T04:12:22.221Z,14.84
2023-05-15T04:13:23.815Z,14.81
2023-05-15T04:14:25.350Z,14.74
2023-05-15T04:15:28.645Z,14.61
2023-05-15T04:16:30.731Z,14.54
2023-05-15T04:17:32.294Z,14.50
2023-05-15T04:18:34.303Z,14.54
2023-05-15T04:19:35.871Z,14.52
2023-05-15T04:20:37.542Z,14.44
2023-05-15T04:21:39.085Z,14.46
2023-05-15T04:22:41.539Z,14.46
2023-05-15T04:23:43.152Z,14.48
2023-05-15T04:24:45.555Z,14.52
2023-05-15T04:25:48.746Z,14.59
2023-05-15T04:26:50.783Z,14.63
2023-05-15T04:27:52.478Z,14.65
2023-05-15T04:29:03.315Z,14.63
2023-05-15T04:30:07.041Z,14.63
2023-05-15T04:31:08.600Z,14.62
2023-05-15T04:32:10.370Z,14.65
2023-05-15T04:33:12.182Z,14.71
2023-05-15T04:34:13.831Z,14.76
2023-05-15T04:35:15.513Z,14.76
2023-05-15T04:36:17.394Z,14.75
2023-05-15T04:37:19.189Z,14.68
2023-05-15T04:38:20.748Z,14.66
2023-05-15T04:39:22.305Z,14.62
2023-05-15T04:40:24.098Z,14.57
2023-05-15T04:41:25.763Z,14.57
2023-05-15T04:42:27.353Z,14.44
2023-05-15T04:43:28.898Z,14.41
2023-05-15T04:44:30.469Z,14.39
2023-05-15T04:45:32.040Z,14.37
2023-05-15T04:46:34.877Z,14.40
2023-05-15T04:47:37.276Z,14.41
2023-05-15T04:48:38.883Z,14.40
2023-05-15T04:49:42.057Z,14.37
2023-05-15T04:50:43.615Z,14.42
2023-05-15T04:51:45.229Z,14.46
2023-05-15T04:52:46.880Z,14.54
2023-05-15T04:53:48.419Z,14.61
2023-05-15T04:54:51.141Z,14.63
2023-05-15T04:55:52.789Z,14.65
2023-05-15T04:56:54.435Z,14.68
2023-05-15T04:57:56.018Z,14.74
2023-05-15T04:58:58.058Z,14.80
2023-05-15T04:59:59.622Z,14.81
2023-05-15T05:01:03.731Z,14.79
2023-05-15T05:02:05.929Z,14.82
2023-05-15T05:03:07.613Z,14.84
2023-05-15T05:04:09.504Z,14.79
2023-05-15T05:05:11.517Z,14.73
2023-05-15T05:06:13.043Z,14.76
2023-05-15T05:07:15.300Z,14.83
2023-05-15T05:08:16.954Z,14.94
2023-05-15T05:09:20.048Z,15.02
2023-05-15T05:10:21.582Z,15.00
2023-05-15T05:11:23.143Z,15.05
2023-05-15T05:12:26.045Z,15.01
2023-05-15T05:13:29.541Z,14.98
2023-05-15T05:14:31.783Z,14.83
2023-05-15T05:15:33.446Z,14.73
2023-05-15T05:16:35.821Z,14.74
2023-05-15T05:17:37.886Z,14.82
2023-05-15T05:18:39.953Z,14.86
2023-05-15T05:19:41.853Z,14.86
2023-05-15T05:20:43.435Z,14.92
2023-05-15T05:21:45.006Z,14.89
2023-05-15T05:22:46.571Z,14.84
2023-05-15T05:23:48.091Z,14.82
2023-05-15T05:24:49.584Z,14.84
2023-05-15T05:25:51.139Z,14.85
2023-05-15T05:26:52.757Z,14.82
2023-05-15T05:27:54.277Z,14.83
2023-05-15T05:28:55.824Z,14.86
2023-05-15T05:29:57.434Z,14.81
2023-05-15T05:30:59.009Z,14.80
2023-05-15T05:32:01.339Z,14.79
2023-05-15T05:33:03.064Z,14.76
2023-05-15T05:34:04.665Z,14.69
2023-05-15T05:35:06.742Z,14.70
2023-05-15T05:36:08.662Z,14.65
2023-05-15T05:37:10.191Z,14.68
2023-05-15T05:38:11.771Z,14.75
2023-05-15T05:39:13.510Z,14.78
2023-05-15T05:40:15.282Z,14.79
2023-05-15T05:41:16.849Z,14.76
2023-05-15T05:42:18.397Z,14.70
2023-05-15T05:43:20.870Z,14.76
2023-05-15T05:44:22.534Z,14.84
2023-05-15T05:45:24.150Z,14.92
2023-05-15T05:46:27.268Z,14.85
2023-05-15T05:47:29.034Z,14.82
2023-05-15T05:48:30.897Z,14.75
2023-05-15T05:49:32.511Z,14.71
2023-05-15T05:50:34.106Z,14.69
2023-05-15T05:51:37.049Z,14.74
2023-05-15T05:52:38.652Z,14.73
2023-05-15T05:53:40.421Z,14.73
2023-05-15T05:54:42.594Z,14.67
2023-05-15T05:55:44.283Z,14.72
2023-05-15T05:56:46.054Z,14.78
2023-05-15T05:57:47.660Z,14.84
2023-05-15T05:58:49.471Z,14.83
2023-05-15T05:59:51.209Z,14.88
2023-05-15T06:00:53.226Z,14.89
2023-05-15T06:01:54.943Z,14.90
2023-05-15T06:02:58.606Z,14.90
2023-05-15T06:04:00.414Z,14.89
2023-05-15T06:05:02.130Z,14.91
2023-05-15T06:06:03.979Z,14.92
2023-05-15T06:07:05.533Z,14.99
2023-05-15T06:08:09.901Z,14.98
2023-05-15T06:09:11.489Z,14.91
2023-05-15T06:10:13.940Z,14.93
2023-05-15T06:11:16.017Z,15.07
2023-05-15T06:12:17.561Z,15.18
2023-05-15T06:13:19.129Z,15.27
2023-05-15T06:14:21.282Z,15.30
2023-05-15T06:15:23.128Z,15.39
2023-05-15T06:16:24.838Z,15.35
2023-05-15T06:17:26.477Z,15.45
2023-05-15T06:18:28.049Z,15.54
2023-05-15T06:19:30.109Z,15.61
2023-05-15T06:20:31.816Z,15.64
2023-05-15T06:21:34.338Z,15.62
2023-05-15T06:22:36.781Z,15.60
2023-05-15T06:23:38.666Z,15.64
2023-05-15T06:24:40.710Z,15.67
2023-05-15T06:25:42.772Z,15.69
2023-05-15T06:26:44.809Z,15.65
2023-05-15T06:27:47.505Z,15.73
2023-05-15T06:28:49.073Z,15.74
2023-05-15T06:29:50.581Z,15.73
2023-05-15T06:30:52.923Z,15.63
2023-05-15T06:31:54.501Z,15.60
2023-05-15T06:32:56.128Z,15.45
2023-05-15T06:33:57.746Z,15.34
2023-05-15T06:34:59.574Z,15.28
2023-05-15T06:36:02.170Z,15.21
2023-05-15T06:37:04.022Z,15.13
2023-05-15T06:38:05.762Z,15.28
2023-05-15T06:39:10.652Z,15.36
2023-05-15T06:40:12.625Z,15.47
2023-05-15T06:41:14.224Z,15.58
2023-05-15T06:42:15.802Z,15.70
2023-05-15T06:43:17.343Z,15.76
2023-05-15T06:44:18.937Z,15.80
2023-05-15T06:45:20.451Z,15.80
2023-05-15T06:46:22.061Z,15.71
2023-05-15T06:47:24.004Z,15.60
2023-05-15T06:48:25.673Z,15.44
2023-05-15T06:49:27.575Z,15.43
2023-05-15T06:50:29.118Z,15.50
2023-05-15T06:51:31.031Z,15.62
2023-05-15T06:52:32.536Z,15.73
2023-05-15T06:53:34.130Z,15.83
2023-05-15T06:54:35.751Z,15.92
2023-05-15T06:55:38.208Z,15.97
2023-05-15T06:56:39.945Z,16.05
2023-05-15T06:57:41.484Z,16.07
2023-05-15T06:58:43.064Z,16.16
2023-05-15T06:59:44.642Z,16.18
2023-05-15T07:00:46.394Z,15.97
2023-05-15T07:01:48.048Z,15.75
2023-05-15T07:02:49.693Z,15.75
2023-05-15T07:03:51.204Z,15.77
2023-05-15T07:04:52.824Z,15.69
2023-05-15T07:05:54.453Z,15.63
2023-05-15T07:06:56.065Z,15.70
2023-05-15T07:07:57.613Z,15.67
2023-05-15T07:08:59.850Z,15.67
2023-05-15T07:10:01.515Z,15.67
2023-05-15T07:11:03.203Z,15.64
2023-05-15T07:12:05.152Z,15.81
2023-05-15T07:13:06.689Z,15.92
2023-05-15T07:14:08.299Z,16.03
2023-05-15T07:15:10.347Z,16.03
2023-05-15T07:16:12.109Z,16.03
2023-05-15T07:17:13.844Z,16.10
2023-05-15T07:18:15.580Z,16.18
2023-05-15T07:19:23.112Z,16.33
2023-05-15T07:20:27.227Z,16.47
2023-05-15T07:21:30.947Z,16.59
2023-05-15T07:22:34.352Z,16.73
2023-05-15T07:23:37.944Z,16.76
2023-05-15T07:24:40.698Z,16.78
2023-05-15T07:25:42.282Z,16.86
2023-05-15T07:26:57.415Z,16.90
2023-05-15T07:28:00.053Z,16.81
2023-05-15T07:29:01.581Z,16.79
2023-05-15T07:30:04.788Z,16.75
2023-05-15T07:31:07.624Z,16.56
2023-05-15T07:32:09.304Z,16.45
2023-05-15T07:33:10.910Z,16.53
2023-05-15T07:34:12.453Z,16.64
2023-05-15T07:35:14.245Z,16.71
2023-05-15T07:36:15.890Z,16.72
2023-05-15T07:37:17.453Z,16.70
2023-05-15T07:38:19.046Z,16.62
2023-05-15T07:39:20.668Z,16.64
2023-05-15T07:40:22.288Z,16.62
2023-05-15T07:41:23.796Z,16.55
2023-05-15T07:42:25.730Z,16.58
2023-05-15T07:43:27.497Z,16.73
2023-05-15T07:44:29.027Z,16.83
2023-05-15T07:45:30.646Z,16.88
2023-05-15T07:46:32.736Z,16.96
2023-05-15T07:47:35.769Z,17.07
2023-05-15T07:48:37.393Z,17.12
2023-05-15T07:49:38.889Z,17.13
2023-05-15T07:50:40.517Z,17.14
2023-05-15T07:51:42.723Z,17.13
2023-05-15T07:52:44.687Z,17.16
2023-05-15T07:53:46.338Z,17.14
2023-05-15T07:54:47.864Z,17.21
2023-05-15T07:55:49.465Z,17.23
2023-05-15T07:56:51.039Z,17.27
2023-05-15T07:57:54.064Z,17.30
2023-05-15T07:58:56.707Z,17.36
2023-05-15T07:59:58.350Z,17.29
2023-05-15T08:00:59.867Z,17.31
2023-05-15T08:02:01.426Z,17.12
2023-05-15T08:03:03.193Z,17.16
2023-05-15T08:04:08.471Z,17.16
2023-05-15T08:05:10.077Z,17.11
2023-05-15T08:06:11.637Z,17.05
2023-05-15T08:07:14.292Z,16.97
2023-05-15T08:08:15.874Z,16.90
2023-05-15T08:09:17.445Z,16.91
2023-05-15T08:10:19.110Z,16.89
2023-05-15T08:11:21.526Z,16.90
2023-05-15T08:12:23.158Z,16.94
2023-05-15T08:13:24.807Z,16.93
2023-05-15T08:14:26.422Z,16.95
2023-05-15T08:15:29.265Z,16.97
2023-05-15T08:16:30.934Z,17.00
2023-05-15T08:17:32.540Z,17.00
2023-05-15T08:18:34.281Z,17.07
2023-05-15T08:19:35.873Z,17.11
2023-05-15T08:20:38.349Z,17.13
2023-05-15T08:21:40.910Z,17.19
2023-05-15T08:22:42.572Z,17.19
2023-05-15T08:23:44.071Z,17.22
2023-05-15T08:24:45.895Z,17.17
2023-05-15T08:25:47.456Z,17.09
2023-05-15T08:26:49.040Z,16.96
2023-05-15T08:27:50.627Z,17.01
2023-05-15T08:28:52.203Z,17.09
2023-05-15T08:29:54.908Z,17.12
2023-05-15T08:30:56.526Z,17.19
2023-05-15T08:31:58.295Z,17.22
2023-05-15T08:32:59.901Z,17.23
2023-05-15T08:34:01.518Z,17.24
2023-05-15T08:35:03.186Z,17.25
2023-05-15T08:36:05.231Z,17.30
2023-05-15T08:37:07.173Z,17.32
2023-05-15T08:38:08.721Z,17.33
2023-05-15T08:39:10.244Z,17.35
2023-05-15T08:40:12.597Z,17.34
2023-05-15T08:41:40.019Z,17.14
2023-05-15T08:42:49.894Z,16.95
2023-05-15T08:43:55.759Z,16.91
2023-05-15T08:44:57.613Z,16.94
2023-05-15T08:46:00.467Z,16.99
2023-05-15T08:47:02.408Z,16.97
2023-05-15T08:48:11.274Z,16.91
2023-05-15T08:49:33.795Z,17.00
2023-05-15T08:50:38.712Z,16.88
2023-05-15T08:51:40.852Z,16.78
2023-05-15T08:52:47.124Z,16.89
2023-05-15T08:53:49.702Z,17.00
2023-05-15T08:54:51.848Z,17.09
2023-05-15T08:55:53.477Z,17.18
2023-05-15T08:56:55.110Z,17.29
2023-05-15T08:57:56.959Z,17.34
2023-05-15T08:58:59.051Z,17.36
2023-05-15T09:00:00.844Z,17.41
2023-05-15T09:01:03.311Z,17.43
2023-05-15T09:02:05.280Z,17.42
2023-05-15T09:03:07.028Z,17.44
2023-05-15T09:04:09.021Z,17.45
2023-05-15T09:05:10.865Z,17.51
2023-05-15T09:06:13.494Z,17.57
2023-05-15T09:07:15.950Z,17.62
2023-05-15T09:08:19.167Z,17.61
2023-05-15T09:09:20.980Z,17.64
2023-05-15T09:10:22.965Z,17.66
2023-05-15T09:11:24.649Z,17.65
2023-05-15T09:12:26.946Z,17.67
2023-05-15T09:13:28.475Z,17.69
2023-05-15T09:14:30.245Z,17.71
2023-05-15T09:15:32.947Z,17.64
2023-05-15T09:16:34.618Z,17.64
2023-05-15T09:17:36.362Z,17.62
2023-05-15T09:18:39.225Z,17.63
2023-05-15T09:19:41.709Z,17.62
2023-05-15T09:20:43.415Z,17.66
2023-05-15T09:21:44.930Z,17.64
2023-05-15T09:22:46.496Z,17.64
2023-05-15T09:23:48.042Z,17.55
2023-05-15T09:24:52.981Z,17.40
2023-05-15T09:25:56.965Z,17.42
2023-05-15T09:27:07.636Z,17.51
2023-05-15T09:28:26.356Z,17.53
2023-05-15T09:29:29.893Z,17.52
2023-05-15T09:30:31.528Z,17.25
2023-05-15T09:31:33.718Z,17.24
2023-05-15T09:32:37.281Z,17.32
2023-05-15T09:33:40.423Z,17.42
2023-05-15T09:34:44.060Z,17.47
2023-05-15T09:35:46.177Z,17.52
2023-05-15T09:36:47.715Z,17.56
2023-05-15T09:37:58.149Z,17.52
2023-05-15T09:39:01.161Z,17.56
2023-05-15T09:40:11.232Z,17.65
2023-05-15T09:41:12.871Z,17.74
2023-05-15T09:42:15.911Z,17.82
2023-05-15T09:43:17.532Z,17.87
2023-05-15T09:44:26.824Z,17.92
2023-05-15T09:45:30.122Z,17.94
2023-05-15T09:46:36.507Z,17.94
2023-05-15T09:47:38.655Z,17.87
2023-05-15T09:48:40.421Z,17.76
2023-05-15T09:49:44.748Z,17.69
2023-05-15T09:50:48.105Z,17.66
2023-05-15T09:51:50.767Z,17.54
2023-05-15T09:52:53.070Z,17.49
2023-05-15T09:53:55.402Z,17.38
2023-05-15T09:54:57.405Z,17.28
2023-05-15T09:55:59.117Z,17.28
2023-05-15T09:57:12.066Z,17.32
2023-05-15T09:58:18.115Z,17.30
2023-05-15T09:59:24.440Z,17.17
2023-05-15T10:00:26.201Z,17.17
2023-05-15T10:01:28.069Z,17.24
2023-05-15T10:02:34.849Z,17.31
2023-05-15T10:03:36.504Z,17.34
2023-05-15T10:04:38.623Z,17.37
2023-05-15T10:05:43.550Z,17.41
2023-05-15T10:06:49.067Z,17.41
2023-05-15T10:07:55.163Z,17.41
2023-05-15T10:08:57.758Z,17.42
2023-05-15T10:10:00.230Z,17.47
2023-05-15T10:11:02.152Z,17.55
2023-05-15T10:12:04.727Z,17.59
2023-05-15T10:13:08.415Z,17.67
2023-05-15T10:14:12.216Z,17.70
2023-05-15T10:15:14.787Z,17.68
2023-05-15T10:16:20.563Z,17.72
2023-05-15T10:17:22.793Z,17.62
2023-05-15T10:18:27.511Z,17.43
2023-05-15T10:19:30.658Z,17.29
2023-05-15T10:20:35.454Z,17.22
2023-05-15T10:21:39.136Z,17.24
2023-05-15T10:22:45.341Z,17.28
2023-05-15T10:23:50.783Z,17.23
2023-05-15T10:25:01.247Z,17.17
2023-05-15T10:26:07.776Z,17.01
2023-05-15T10:27:10.846Z,16.98
2023-05-15T10:28:13.003Z,17.08
2023-05-15T10:29:22.045Z,17.19
2023-05-15T10:30:25.862Z,17.37
2023-05-15T10:31:29.424Z,17.51
2023-05-15T10:32:31.670Z,17.54
2023-05-15T10:33:36.032Z,17.61
2023-05-15T10:34:37.854Z,17.65
2023-05-15T10:35:40.524Z,17.60
2023-05-15T10:36:43.076Z,17.62
2023-05-15T10:37:48.817Z,17.63
2023-05-15T10:38:52.130Z,17.71
2023-05-15T10:39:56.157Z,17.78
2023-05-15T10:41:13.130Z,17.84
2023-05-15T10:42:20.142Z,17.86
2023-05-15T10:43:22.686Z,17.84
2023-05-15T10:44:24.325Z,17.82
2023-05-15T10:45:26.517Z,17.81
2023-05-15T10:46:30.293Z,17.88
2023-05-15T10:47:33.397Z,17.85
2023-05-15T10:48:35.844Z,17.92
2023-05-15T10:49:37.526Z,17.94
2023-05-15T10:50:39.299Z,17.99
2023-05-15T10:51:42.623Z,17.98
2023-05-15T10:52:44.335Z,17.71
2023-05-15T10:53:46.247Z,17.68
2023-05-15T10:54:47.934Z,17.73
2023-05-15T10:55:50.467Z,17.82
2023-05-15T10:56:55.816Z,17.91
2023-05-15T10:57:57.368Z,17.96
2023-05-15T10:59:07.390Z,18.02
2023-05-15T11:00:41.330Z,18.06
2023-05-15T11:01:43.107Z,17.98
2023-05-15T11:02:45.047Z,17.74
2023-05-15T11:03:50.045Z,17.60
2023-05-15T11:05:00.807Z,17.54
2023-05-15T11:06:12.896Z,17.57
2023-05-15T11:07:16.576Z,17.69
2023-05-15T11:08:19.576Z,17.71
2023-05-15T11:09:28.085Z,17.55
2023-05-15T11:10:29.742Z,17.33
2023-05-15T11:12:00.367Z,17.03
2023-05-15T11:13:02.583Z,16.98
2023-05-15T11:14:07.988Z,16.84
2023-05-15T11:15:09.589Z,16.84
2023-05-15T11:16:12.048Z,16.89
2023-05-15T11:17:16.646Z,16.91
2023-05-15T11:18:20.581Z,16.95
2023-05-15T11:19:22.820Z,17.07
2023-05-15T11:20:35.075Z,17.19
2023-05-15T11:21:45.504Z,17.35
2023-05-15T11:22:58.073Z,17.52
2023-05-15T11:24:06.734Z,17.66
2023-05-15T11:25:10.370Z,17.78
2023-05-15T11:26:13.606Z,17.94
2023-05-15T11:27:26.467Z,17.97
2023-05-15T11:28:30.706Z,17.85
2023-05-15T11:29:33.069Z,17.98
2023-05-15T11:30:36.027Z,18.09
2023-05-15T11:31:38.433Z,18.19
2023-05-15T11:32:42.772Z,18.27
2023-05-15T11:33:44.413Z,18.38
2023-05-15T11:34:45.974Z,18.46
2023-05-15T11:35:48.724Z,18.50
2023-05-15T11:36:50.395Z,18.45
2023-05-15T11:38:02.390Z,18.44
2023-05-15T11:39:10.376Z,18.46
2023-05-15T11:40:20.079Z,18.47
2023-05-15T11:41:23.958Z,18.53
2023-05-15T11:42:25.540Z,18.59
2023-05-15T11:43:36.503Z,18.63
2023-05-15T11:44:38.187Z,18.63
2023-05-15T11:45:40.754Z,18.63
2023-05-15T11:46:43.580Z,18.68
2023-05-15T11:47:45.475Z,18.63
2023-05-15T11:48:48.056Z,18.63
2023-05-15T11:49:50.020Z,18.61
2023-05-15T11:50:55.012Z,18.58
2023-05-15T11:51:56.693Z,18.55
2023-05-15T11:52:58.527Z,18.55
2023-05-15T11:54:01.815Z,18.59
2023-05-15T11:55:04.574Z,18.52
2023-05-15T11:56:06.438Z,18.47
2023-05-15T11:57:08.605Z,18.44
2023-05-15T11:58:17.928Z,18.46
2023-05-15T11:59:21.519Z,18.50
2023-05-15T12:00:23.401Z,18.49
2023-05-15T12:01:25.743Z,18.49
2023-05-15T12:02:27.805Z,18.49
2023-05-15T12:03:35.110Z,18.53
2023-05-15T12:04:37.334Z,18.51
2023-05-15T12:05:50.243Z,18.51
2023-05-15T12:07:03.213Z,18.56
2023-05-15T12:08:09.863Z,18.58
2023-05-15T12:09:16.720Z,18.63
2023-05-15T12:10:18.479Z,18.65
2023-05-15T12:11:24.341Z,18.58
2023-05-15T12:12:28.563Z,18.46
2023-05-15T12:13:31.574Z,18.44
2023-05-15T12:14:33.957Z,18.50
2023-05-15T12:15:38.874Z,18.45
2023-05-15T12:16:40.523Z,18.38
2023-05-15T12:17:43.670Z,18.46
2023-05-15T12:18:47.364Z,18.40
2023-05-15T12:19:50.233Z,18.33
2023-05-15T12:20:53.142Z,18.40
2023-05-15T12:21:54.979Z,18.35
2023-05-15T12:22:58.692Z,18.27
2023-05-15T12:24:07.594Z,18.26
2023-05-15T12:25:12.032Z,18.31
2023-05-15T12:26:13.738Z,18.48
2023-05-15T12:27:16.239Z,18.67
2023-05-15T12:28:18.069Z,18.82
2023-05-15T12:29:19.867Z,18.94
2023-05-15T12:30:22.073Z,19.05
2023-05-15T12:31:23.874Z,19.14
2023-05-15T12:32:26.423Z,19.22
2023-05-15T12:33:28.239Z,19.28
2023-05-15T12:34:29.962Z,19.33
2023-05-15T12:35:36.350Z,19.31
2023-05-15T12:36:41.041Z,19.38
2023-05-15T12:37:42.740Z,19.38
2023-05-15T12:38:44.318Z,19.46
2023-05-15T12:39:59.629Z,19.58
2023-05-15T12:41:01.342Z,19.68
2023-05-15T12:42:03.845Z,19.71
2023-05-15T12:43:09.402Z,19.74
2023-05-15T12:44:17.976Z,19.78
2023-05-15T12:45:20.536Z,19.85
2023-05-15T12:46:24.423Z,19.87
2023-05-15T12:47:27.723Z,19.87
2023-05-15T12:48:32.357Z,19.89
2023-05-15T12:49:36.943Z,19.96
2023-05-15T12:50:39.044Z,19.99
2023-05-15T12:51:44.144Z,19.98
2023-05-15T12:52:51.645Z,20.02
2023-05-15T12:53:53.830Z,19.96
2023-05-15T12:54:55.443Z,20.05
2023-05-15T12:55:57.014Z,20.11
2023-05-15T12:56:59.743Z,20.15
2023-05-15T12:58:10.564Z,20.26
2023-05-15T12:59:12.490Z,20.32
2023-05-15T13:00:15.049Z,20.35
2023-05-15T13:01:17.433Z,20.40
2023-05-15T13:02:21.244Z,20.26
2023-05-15T13:03:25.398Z,20.15
2023-05-15T13:04:27.827Z,20.18
2023-05-15T13:05:33.073Z,20.27
2023-05-15T13:06:42.427Z,20.17
2023-05-15T13:07:47.958Z,20.30
2023-05-15T13:08:49.771Z,20.34
2023-05-15T13:10:12.143Z,20.41
2023-05-15T13:11:14.170Z,20.36
2023-05-15T13:12:19.225Z,20.15
2023-05-15T13:13:21.257Z,20.13
2023-05-15T13:14:27.306Z,20.18
2023-05-15T13:15:37.801Z,20.21
2023-05-15T13:16:42.738Z,20.31
2023-05-15T13:17:45.543Z,20.35
2023-05-15T13:18:47.283Z,20.33
2023-05-15T13:19:49.218Z,20.42
2023-05-15T13:20:53.991Z,20.37
2023-05-15T13:21:55.596Z,20.31
2023-05-15T13:22:57.147Z,20.29
2023-05-15T13:23:58.867Z,20.23
2023-05-15T13:25:00.423Z,20.16
2023-05-15T13:26:02.021Z,20.31
2023-05-15T13:27:03.836Z,20.32
2023-05-15T13:28:06.697Z,20.42
2023-05-15T13:29:08.271Z,20.30
2023-05-15T13:30:10.252Z,20.23
2023-05-15T13:31:11.846Z,20.11
2023-05-15T13:32:13.418Z,20.06
2023-05-15T13:33:15.012Z,20.15
2023-05-15T13:34:17.697Z,20.21
2023-05-15T13:35:19.281Z,20.15
2023-05-15T13:36:20.823Z,20.14
2023-05-15T13:37:22.409Z,20.04